Time;durP1;ratioP1;P1;durP2;ratioP2;P2;SDS_P1;SDS_P2;PMS_P1;PMS_P2;Temp;Humidity;BMP_temperature;BMP_pressure;BME280_temperature;BME280_humidity;BME280_pressure;Samples;Min_cycle;Max_cycle;Signal;HPM_P1;HPM_P2
2023/03/05 00:01:18;;;;;;;8.47;1.50;;;;;;;3.60;98.51;100948.06;5014681;28;20448;-68
2023/03/05 00:03:46;;;;;;;32.10;2.23;;;;;;;3.60;99.37;100945.38;5014705;28;20421;-68
2023/03/05 00:06:13;;;;;;;10.13;1.60;;;;;;;3.56;100.00;100939.69;5014258;28;20552;-68
2023/03/05 00:08:39;;;;;;;14.83;2.57;;;;;;;3.55;100.00;100935.41;5014508;28;20527;-68
2023/03/05 00:11:08;;;;;;;24.53;2.00;;;;;;;3.50;100.00;100938.03;5014445;28;20554;-68
2023/03/05 00:13:35;;;;;;;10.10;1.73;;;;;;;3.47;100.00;100933.16;5014078;28;20444;-68
2023/03/05 00:16:03;;;;;;;5.60;1.30;;;;;;;3.40;100.00;100921.78;5014310;28;20499;-68
2023/03/05 00:18:30;;;;;;;8.70;1.83;;;;;;;3.36;100.00;100926.81;5014573;28;20448;-68
2023/03/05 00:20:58;;;;;;;11.87;1.70;;;;;;;3.38;100.00;100918.56;5014339;28;20620;-68
2023/03/05 00:23:25;;;;;;;11.70;1.47;;;;;;;3.28;100.00;100916.53;5013989;28;20973;-68
2023/03/05 00:25:52;;;;;;;8.50;1.73;;;;;;;3.36;100.00;100910.75;5013821;28;20562;-67
2023/03/05 00:28:18;;;;;;;7.77;1.53;;;;;;;3.38;100.00;100905.97;5014158;28;20550;-67
2023/03/05 00:30:45;;;;;;;10.37;1.70;;;;;;;3.41;100.00;100901.97;5014156;28;20452;-69
2023/03/05 00:33:13;;;;;;;6.27;1.80;;;;;;;3.32;99.92;100898.94;5013660;28;20827;-68
2023/03/05 00:35:40;;;;;;;12.13;1.80;;;;;;;3.34;99.77;100896.00;5014047;28;20460;-68
2023/03/05 00:38:08;;;;;;;6.00;1.63;;;;;;;3.34;98.60;100891.44;5014062;28;20484;-69
2023/03/05 00:40:36;;;;;;;15.40;1.47;;;;;;;3.29;98.95;100892.19;5013985;28;20456;-67
2023/03/05 00:43:03;;;;;;;17.30;1.67;;;;;;;3.32;97.52;100895.41;5013858;28;20444;-68
2023/03/05 00:45:30;;;;;;;7.57;1.70;;;;;;;3.24;95.77;100886.75;5013800;28;20470;-68
2023/03/05 00:47:56;;;;;;;11.50;1.63;;;;;;;3.21;95.65;100889.09;5013483;28;20527;-68
2023/03/05 00:50:23;;;;;;;6.87;1.50;;;;;;;3.34;93.15;100879.94;5014062;28;20448;-68
2023/03/05 00:52:49;;;;;;;9.60;1.57;;;;;;;3.31;91.68;100881.22;5013762;28;20451;-69
2023/03/05 00:55:18;;;;;;;6.20;1.50;;;;;;;3.28;91.12;100879.06;5013666;28;20499;-68
2023/03/05 00:57:45;;;;;;;11.43;1.33;;;;;;;3.28;89.91;100881.72;5013261;28;20582;-69
2023/03/05 01:00:13;;;;;;;5.17;1.20;;;;;;;3.27;89.15;100880.09;5013598;28;20526;-68
2023/03/05 01:02:40;;;;;;;5.67;0.90;;;;;;;3.28;88.22;100871.84;5013484;28;20456;-69
2023/03/05 01:05:07;;;;;;;8.00;1.53;;;;;;;3.26;87.70;100865.09;5013314;28;20506;-68
2023/03/05 01:07:34;;;;;;;7.90;1.47;;;;;;;3.28;86.35;100869.16;5013744;28;20435;-68
2023/03/05 01:10:00;;;;;;;6.13;1.93;;;;;;;3.24;84.92;100864.53;5013395;28;20450;-69
2023/03/05 01:12:28;;;;;;;7.00;1.23;;;;;;;3.26;84.57;100863.22;5013461;28;20452;-67
2023/03/05 01:14:55;;;;;;;11.50;2.07;;;;;;;3.25;83.75;100856.25;5013339;28;20992;-67
2023/03/05 01:17:22;;;;;;;14.40;1.07;;;;;;;3.22;82.88;100861.28;5013167;28;20494;-71
2023/03/05 01:19:48;;;;;;;5.37;0.90;;;;;;;3.22;82.14;100866.63;5013354;28;20851;-69
2023/03/05 01:22:15;;;;;;;6.97;1.50;;;;;;;3.34;81.27;100848.63;5013216;28;20836;-68
2023/03/05 01:24:41;;;;;;;12.60;1.60;;;;;;;3.27;81.22;100859.47;5013208;28;20574;-69
2023/03/05 01:27:08;;;;;;;4.07;0.47;;;;;;;3.31;80.75;100853.66;5013061;28;20472;-69
2023/03/05 01:29:36;;;;;;;8.50;1.47;;;;;;;3.27;80.51;100854.13;5013435;28;20455;-67
2023/03/05 01:32:02;;;;;;;5.63;1.17;;;;;;;3.21;79.81;100849.75;5013544;28;20444;-68
2023/03/05 01:34:29;;;;;;;13.40;1.50;;;;;;;3.18;79.02;100858.28;5013375;28;20527;-68
2023/03/05 01:36:56;;;;;;;7.60;1.07;;;;;;;3.13;77.75;100852.84;5012852;28;20571;-68
2023/03/05 01:39:22;;;;;;;5.70;1.10;;;;;;;3.09;78.66;100851.72;5013262;28;20526;-68
2023/03/05 01:41:49;;;;;;;7.17;0.93;;;;;;;3.07;77.51;100851.16;5013325;28;20458;-68
2023/03/05 01:44:22;;;;;;;7.93;0.90;;;;;;;3.09;77.14;100845.56;5012606;28;20451;-68
2023/03/05 01:46:50;;;;;;;5.30;1.00;;;;;;;3.04;75.85;100836.41;5012811;28;20801;-68
2023/03/05 01:49:22;;;;;;;5.70;1.40;;;;;;;3.05;75.46;100842.56;5013217;28;20542;-70
2023/03/05 01:51:59;;;;;;;4.50;0.90;;;;;;;3.01;76.23;100834.22;5012974;28;20922;-69
2023/03/05 01:54:30;;;;;;;8.83;1.10;;;;;;;2.98;75.34;100829.38;5013391;28;20443;-68
2023/03/05 01:57:00;;;;;;;5.67;1.10;;;;;;;2.95;75.31;100829.03;5013358;28;20472;-69
2023/03/05 01:59:27;;;;;;;14.03;1.70;;;;;;;2.92;75.07;100837.53;5013021;28;20530;-68
2023/03/05 02:01:58;;;;;;;7.03;1.30;;;;;;;2.90;75.06;100828.97;5013406;28;20466;-69
2023/03/05 02:04:31;;;;;;;6.00;0.80;;;;;;;2.80;74.33;100826.13;5013240;28;20810;-69
2023/03/05 02:06:58;;;;;;;13.73;1.63;;;;;;;2.83;74.17;100822.94;5013382;28;20416;-69
2023/03/05 02:09:27;;;;;;;6.10;1.00;;;;;;;2.83;73.64;100826.44;5013531;28;20450;-69
2023/03/05 02:11:55;;;;;;;5.10;0.83;;;;;;;2.87;72.85;100819.53;5013217;28;20514;-69
2023/03/05 02:14:23;;;;;;;9.57;1.37;;;;;;;2.82;72.52;100818.66;5012998;28;20436;-69
2023/03/05 02:16:50;;;;;;;8.60;1.17;;;;;;;2.80;72.69;100815.44;5012954;28;20452;-69
2023/03/05 02:19:18;;;;;;;7.00;0.53;;;;;;;2.78;73.34;100810.31;5012998;28;20454;-69
2023/03/05 02:21:48;;;;;;;10.33;1.03;;;;;;;2.79;71.66;100806.59;5013287;28;20476;-69
2023/03/05 02:24:16;;;;;;;9.80;1.23;;;;;;;2.74;72.29;100812.66;5012882;28;20467;-69
2023/03/05 02:26:44;;;;;;;5.43;0.73;;;;;;;2.74;72.97;100809.97;5013113;28;20440;-69
2023/03/05 02:29:14;;;;;;;10.43;2.07;;;;;;;2.77;72.53;100808.69;5012997;28;20436;-69
2023/03/05 02:31:41;;;;;;;5.37;0.70;;;;;;;2.79;71.88;100809.28;5013023;28;20436;-69
2023/03/05 02:34:07;;;;;;;7.60;1.20;;;;;;;2.82;71.77;100799.94;5012945;28;20534;-69
2023/03/05 02:36:34;;;;;;;7.70;1.40;;;;;;;2.80;72.10;100797.53;5013395;28;20542;-69
2023/03/05 02:39:02;;;;;;;6.90;0.90;;;;;;;2.71;72.14;100789.09;5013338;28;20488;-68
2023/03/05 02:41:29;;;;;;;10.33;1.70;;;;;;;2.77;72.55;100782.75;5012187;28;20448;-65
2023/03/05 02:43:55;;;;;;;9.40;1.20;;;;;;;2.77;72.18;100785.44;5012525;28;20448;-68
2023/03/05 02:46:22;;;;;;;4.97;0.90;;;;;;;2.74;73.21;100780.56;5013062;28;20463;-69
2023/03/05 02:48:49;;;;;;;10.63;1.30;;;;;;;2.74;73.38;100779.75;5013079;28;20444;-68
2023/03/05 02:51:16;;;;;;;5.23;1.00;;;;;;;2.72;73.53;100780.00;5012859;28;20498;-69
2023/03/05 02:53:42;;;;;;;5.80;1.27;;;;;;;2.81;73.47;100776.94;5012832;28;20527;-68
2023/03/05 02:56:11;;;;;;;8.83;1.23;;;;;;;2.92;72.58;100766.16;5013148;28;20464;-69
2023/03/05 02:58:38;;;;;;;5.50;0.87;;;;;;;2.86;72.42;100768.97;5015925;28;20534;-69
2023/03/05 03:01:05;;;;;;;4.70;0.90;;;;;;;2.82;72.84;100770.50;5015940;28;20443;-69
2023/03/05 03:03:31;;;;;;;6.00;1.13;;;;;;;2.91;72.36;100763.69;5015950;28;21008;-69
2023/03/05 03:05:58;;;;;;;6.10;1.40;;;;;;;2.90;72.57;100756.72;5016024;28;20514;-68
2023/03/05 03:08:24;;;;;;;7.50;1.50;;;;;;;2.89;73.12;100763.94;5015947;28;20886;-69
2023/03/05 03:10:51;;;;;;;8.30;1.07;;;;;;;2.97;72.68;100763.53;5015690;28;20989;-69
2023/03/05 03:13:19;;;;;;;4.70;0.90;;;;;;;2.99;72.84;100755.25;5015547;28;20964;-68
2023/03/05 03:15:46;;;;;;;4.53;0.80;;;;;;;2.87;73.75;100755.34;5015840;28;20550;-69
2023/03/05 03:18:12;;;;;;;7.80;1.10;;;;;;;2.89;73.43;100758.59;5015736;28;20515;-69
2023/03/05 03:20:39;;;;;;;6.80;1.00;;;;;;;2.89;73.91;100755.13;5015787;28;20448;-68
2023/03/05 03:23:07;;;;;;;7.50;1.43;;;;;;;2.87;73.56;100752.66;5015768;28;20446;-69
2023/03/05 03:25:34;;;;;;;4.87;0.73;;;;;;;2.89;73.96;100747.91;5015483;28;20479;-69
2023/03/05 03:28:01;;;;;;;10.27;1.70;;;;;;;2.89;73.91;100742.56;5015344;28;20452;-69
2023/03/05 03:30:29;;;;;;;12.20;1.70;;;;;;;2.90;74.11;100743.34;5015375;28;20459;-69
2023/03/05 03:32:55;;;;;;;13.20;1.53;;;;;;;2.80;75.38;100753.91;5015241;28;20444;-69
2023/03/05 03:35:22;;;;;;;7.40;1.23;;;;;;;2.81;75.05;100751.00;5015431;28;20504;-67
2023/03/05 03:37:48;;;;;;;8.87;1.27;;;;;;;2.77;75.41;100750.66;5015068;28;20575;-69
2023/03/05 03:40:15;;;;;;;6.53;1.20;;;;;;;2.74;75.53;100735.09;5015433;28;20445;-68
2023/03/05 03:42:42;;;;;;;7.93;1.17;;;;;;;2.68;75.83;100733.41;5015369;28;20450;-69
2023/03/05 03:45:09;;;;;;;5.13;0.93;;;;;;;2.64;76.70;100734.16;5015251;28;20500;-69
2023/03/05 03:47:37;;;;;;;5.90;1.30;;;;;;;2.51;78.11;100733.41;5014963;28;20443;-68
2023/03/05 03:50:05;;;;;;;7.23;1.03;;;;;;;2.51;77.98;100738.75;5015408;28;20440;-68
2023/03/05 03:52:31;;;;;;;9.73;1.40;;;;;;;2.46;78.35;100730.66;5014883;28;20993;-67
2023/03/05 03:55:00;;;;;;;4.80;0.90;;;;;;;2.38;78.89;100727.59;5014777;28;20977;-67
2023/03/05 03:57:28;;;;;;;10.60;1.67;;;;;;;2.31;80.11;100724.28;5015171;28;20444;-69
2023/03/05 03:59:55;;;;;;;4.60;0.70;;;;;;;2.32;80.03;100717.88;5015168;28;20444;-67
2023/03/05 04:02:22;;;;;;;8.47;1.27;;;;;;;2.34;80.41;100713.09;5015000;28;20447;-68
2023/03/05 04:04:50;;;;;;;6.83;0.90;;;;;;;2.32;80.90;100713.34;5014870;28;20466;-68
2023/03/05 04:07:18;;;;;;;5.20;0.90;;;;;;;2.31;80.43;100698.38;5014538;28;20523;-67
2023/03/05 04:09:45;;;;;;;4.93;0.80;;;;;;;2.23;81.88;100704.91;5014437;28;20515;-68
2023/03/05 04:12:16;;;;;;;5.57;0.60;;;;;;;2.19;82.19;100709.13;5014632;28;20468;-67
2023/03/05 04:14:43;;;;;;;6.30;1.23;;;;;;;2.16;82.55;100704.25;5014798;28;20468;-68
2023/03/05 04:17:11;;;;;;;8.20;1.43;;;;;;;2.23;82.59;100704.13;5014413;28;20949;-68
2023/03/05 04:19:37;;;;;;;7.97;1.50;;;;;;;2.14;83.51;100698.34;5014291;28;20859;-67
2023/03/05 04:22:05;;;;;;;4.40;0.70;;;;;;;2.09;83.62;100700.94;5014304;28;20976;-68
2023/03/05 04:24:32;;;;;;;9.83;0.93;;;;;;;2.09;84.40;100695.59;5014100;28;20470;-67
2023/03/05 04:26:58;;;;;;;6.00;1.10;;;;;;;2.08;84.30;100693.16;5014265;28;20450;-68
2023/03/05 04:29:25;;;;;;;9.10;1.00;;;;;;;2.07;84.26;100694.22;5014471;28;20447;-68
2023/03/05 04:31:52;;;;;;;6.10;0.90;;;;;;;2.03;85.00;100683.19;5014490;28;20448;-68
2023/03/05 04:34:18;;;;;;;5.20;0.90;;;;;;;2.06;84.94;100689.94;5014254;28;20432;-68
2023/03/05 04:36:45;;;;;;;5.90;0.80;;;;;;;2.05;84.84;100694.47;5014698;28;20524;-68
2023/03/05 04:39:13;;;;;;;6.97;1.50;;;;;;;2.04;85.12;100682.16;5014234;28;20483;-68
2023/03/05 04:41:40;;;;;;;8.03;1.20;;;;;;;2.00;85.24;100679.16;5013988;28;20527;-68
2023/03/05 04:44:06;;;;;;;6.47;0.93;;;;;;;1.97;85.58;100678.84;5014264;28;20440;-67
2023/03/05 04:46:33;;;;;;;7.63;1.00;;;;;;;1.98;85.71;100686.59;5014127;28;20474;-68
2023/03/05 04:49:00;;;;;;;4.90;0.90;;;;;;;1.98;85.89;100675.09;5013906;28;20539;-68
2023/03/05 04:51:26;;;;;;;7.40;0.87;;;;;;;1.96;86.23;100671.88;5014163;28;20451;-67
2023/03/05 04:53:53;;;;;;;4.80;0.93;;;;;;;1.89;87.03;100674.69;5013806;28;20483;-68
2023/03/05 04:56:21;;;;;;;7.73;1.47;;;;;;;1.89;87.18;100676.56;5015186;28;20494;-68
2023/03/05 04:58:47;;;;;;;10.03;1.30;;;;;;;1.88;87.56;100681.09;5013871;28;21027;-67
2023/03/05 05:01:14;;;;;;;4.90;0.80;;;;;;;1.93;87.23;100677.69;5014012;28;20455;-68
2023/03/05 05:03:41;;;;;;;7.33;1.50;;;;;;;1.91;87.19;100674.47;5014255;28;20451;-68
2023/03/05 05:06:08;;;;;;;5.87;1.07;;;;;;;1.89;87.76;100668.53;5013807;28;20460;-68
2023/03/05 05:08:35;;;;;;;4.63;0.77;;;;;;;1.87;88.24;100668.00;5014129;28;20438;-67
2023/03/05 05:11:04;;;;;;;5.77;0.90;;;;;;;1.89;88.30;100671.22;5013517;28;20824;-69
2023/03/05 05:13:33;;;;;;;7.47;1.30;;;;;;;1.88;88.12;100667.72;5013433;28;20444;-68
2023/03/05 05:16:00;;;;;;;6.70;1.20;;;;;;;1.93;87.84;100667.81;5013365;28;20969;-68
2023/03/05 05:18:27;;;;;;;6.53;1.07;;;;;;;1.97;88.03;100668.97;5013611;28;20480;-68
2023/03/05 05:20:53;;;;;;;7.43;1.30;;;;;;;1.97;87.68;100665.47;5013562;28;20440;-68
2023/03/05 05:23:20;;;;;;;6.53;1.13;;;;;;;1.94;87.87;100663.28;5013297;28;20471;-68
2023/03/05 05:25:46;;;;;;;6.63;1.00;;;;;;;1.91;88.55;100663.78;5013327;28;20558;-68
2023/03/05 05:28:13;;;;;;;5.47;1.27;;;;;;;1.89;88.58;100660.53;5013259;28;20487;-67
2023/03/05 05:30:41;;;;;;;4.43;0.70;;;;;;;1.95;88.64;100665.72;5013762;28;20454;-68
2023/03/05 05:33:07;;;;;;;4.63;0.83;;;;;;;1.99;88.78;100655.34;5013110;28;20487;-68
2023/03/05 05:35:34;;;;;;;6.20;1.60;;;;;;;1.99;88.85;100652.69;5013428;28;20554;-68
2023/03/05 05:38:01;;;;;;;10.13;1.03;;;;;;;2.00;88.76;100657.00;5013307;28;20448;-68
2023/03/05 05:40:27;;;;;;;13.50;1.70;;;;;;;2.02;88.84;100660.22;5013613;28;20436;-68
2023/03/05 05:42:54;;;;;;;9.83;1.20;;;;;;;2.03;89.29;100656.50;5013229;28;20450;-68
2023/03/05 05:45:20;;;;;;;15.23;1.80;;;;;;;2.02;88.90;100654.88;5013394;28;20502;-68
2023/03/05 05:47:48;;;;;;;11.03;1.50;;;;;;;2.02;89.36;100661.03;5013245;28;20444;-68
2023/03/05 05:50:15;;;;;;;9.10;1.40;;;;;;;2.08;88.72;100667.28;5013506;28;20472;-68
2023/03/05 05:52:42;;;;;;;10.83;1.03;;;;;;;2.05;89.23;100662.41;5013494;28;20471;-68
2023/03/05 05:55:09;;;;;;;8.73;1.30;;;;;;;2.08;89.21;100664.59;5012917;28;21164;-68
2023/03/05 05:57:36;;;;;;;7.20;1.20;;;;;;;2.08;89.08;100669.94;5013222;28;20527;-68
2023/03/05 06:00:05;;;;;;;8.23;1.10;;;;;;;2.08;89.73;100671.78;5013191;28;20487;-66
2023/03/05 06:02:31;;;;;;;7.60;0.97;;;;;;;2.15;89.67;100665.25;5012935;28;20832;-68
2023/03/05 06:04:59;;;;;;;6.10;0.93;;;;;;;2.15;89.10;100670.59;5013131;28;20552;-68
2023/03/05 06:07:26;;;;;;;6.27;1.30;;;;;;;2.08;89.51;100669.13;5012914;28;20956;-68
2023/03/05 06:09:53;;;;;;;12.53;1.00;;;;;;;2.12;90.09;100671.06;5012896;28;20519;-68
2023/03/05 06:12:19;;;;;;;5.47;1.00;;;;;;;2.25;89.54;100664.59;5012826;28;20446;-68
2023/03/05 06:14:46;;;;;;;7.43;1.20;;;;;;;2.26;89.54;100661.69;5013053;28;20837;-68
2023/03/05 06:17:13;;;;;;;5.40;1.03;;;;;;;2.36;89.19;100666.38;5013159;28;20534;-68
2023/03/05 06:19:39;;;;;;;16.53;2.00;;;;;;;2.40;88.59;100650.66;5013069;28;20506;-68
2023/03/05 06:22:07;;;;;;;7.07;0.70;;;;;;;2.40;89.26;100656.00;5013079;28;20446;-68
2023/03/05 06:24:34;;;;;;;6.20;1.50;;;;;;;2.40;89.12;100650.66;5012701;28;20816;-68
2023/03/05 06:27:00;;;;;;;25.83;1.60;;;;;;;2.50;88.63;100658.81;5013015;28;20555;-68
2023/03/05 06:29:27;;;;;;;6.00;1.07;;;;;;;2.52;88.71;100654.84;5012980;28;20440;-68
2023/03/05 06:31:53;;;;;;;5.43;1.20;;;;;;;2.61;88.49;100662.44;5014847;28;20467;-68
2023/03/05 06:34:20;;;;;;;5.13;1.33;;;;;;;2.63;88.06;100655.78;5016527;28;20454;-68
2023/03/05 06:36:47;;;;;;;4.60;0.70;;;;;;;2.71;88.01;100657.25;5016610;28;20519;-68
2023/03/05 06:39:15;;;;;;;10.10;1.20;;;;;;;2.72;87.17;100657.00;5016489;28;20520;-68
2023/03/05 06:41:41;;;;;;;7.00;1.37;;;;;;;2.78;86.99;100664.00;5016522;28;20535;-68
2023/03/05 06:44:08;;;;;;;5.53;1.10;;;;;;;2.81;86.40;100660.03;5016523;28;20447;-68
2023/03/05 06:46:37;;;;;;;4.67;0.97;;;;;;;2.80;85.82;100655.75;5016007;28;20542;-68
2023/03/05 06:49:05;;;;;;;6.07;1.00;;;;;;;2.85;85.58;100652.34;5016135;28;20482;-68
2023/03/05 06:51:34;;;;;;;7.20;0.83;;;;;;;2.84;85.73;100650.72;5016405;28;20440;-68
2023/03/05 06:54:03;;;;;;;9.40;1.57;;;;;;;2.85;85.51;100658.50;5016008;28;20530;-69
2023/03/05 06:56:31;;;;;;;5.70;1.07;;;;;;;2.88;85.01;100651.81;5016151;28;20548;-69
2023/03/05 06:58:58;;;;;;;7.53;1.37;;;;;;;2.81;84.96;100654.69;5016110;28;20571;-67
2023/03/05 07:01:24;;;;;;;4.10;0.60;;;;;;;2.84;85.33;100656.09;5016042;28;20551;-67
2023/03/05 07:03:52;;;;;;;7.50;1.10;;;;;;;2.97;84.70;100655.72;5016038;28;20444;-68
2023/03/05 07:06:20;;;;;;;14.37;1.53;;;;;;;2.99;84.15;100657.06;5015681;28;20550;-68
2023/03/05 07:08:47;;;;;;;8.73;0.90;;;;;;;3.02;84.04;100659.25;5016012;28;21024;-67
2023/03/05 07:11:15;;;;;;;4.40;0.77;;;;;;;3.09;83.28;100661.72;5016139;28;20628;-67
2023/03/05 07:13:46;;;;;;;6.10;0.80;;;;;;;3.10;82.94;100658.03;5015922;28;20444;-67
2023/03/05 07:16:15;;;;;;;4.63;0.80;;;;;;;2.98;83.05;100658.13;5015690;28;20468;-68
2023/03/05 07:18:41;;;;;;;4.60;0.50;;;;;;;3.05;83.19;100668.63;5015680;28;20951;-68
2023/03/05 07:21:09;;;;;;;5.80;1.20;;;;;;;3.13;82.41;100668.19;5015909;28;20467;-66
2023/03/05 07:23:36;;;;;;;5.77;0.97;;;;;;;3.09;82.24;100664.41;5015842;28;20448;-67
2023/03/05 07:26:04;;;;;;;5.57;1.13;;;;;;;3.09;82.50;100672.44;5015354;28;21018;-67
2023/03/05 07:28:31;;;;;;;4.50;0.80;;;;;;;3.09;81.48;100666.28;5015487;28;21021;-67
2023/03/05 07:31:02;;;;;;;4.30;0.80;;;;;;;3.06;81.14;100666.78;5015706;28;20484;-68
2023/03/05 07:33:29;;;;;;;5.30;1.00;;;;;;;3.09;81.95;100669.75;5015771;28;20428;-67
2023/03/05 07:35:56;;;;;;;10.13;0.90;;;;;;;3.16;81.37;100665.03;5015656;28;20498;-67
2023/03/05 07:38:22;;;;;;;5.60;0.90;;;;;;;3.18;82.02;100668.25;5015456;28;20954;-68
2023/03/05 07:40:50;;;;;;;4.97;1.07;;;;;;;3.22;81.28;100676.59;5015786;28;20571;-68
2023/03/05 07:43:17;;;;;;;6.80;1.10;;;;;;;3.32;80.10;100665.19;5014320;28;20450;-68
2023/03/05 07:45:45;;;;;;;4.53;0.70;;;;;;;3.29;79.84;100659.31;5015535;28;20464;-67
2023/03/05 07:48:15;;;;;;;5.27;0.97;;;;;;;3.34;79.94;100660.41;5015578;28;20875;-68
2023/03/05 07:50:42;;;;;;;4.43;0.67;;;;;;;3.30;80.08;100662.78;5015674;28;20429;-68
2023/03/05 07:53:09;;;;;;;7.50;0.83;;;;;;;3.30;78.82;100670.81;5015324;28;20451;-67
2023/03/05 07:55:35;;;;;;;5.23;0.87;;;;;;;3.24;78.99;100667.28;5015269;28;20468;-68
2023/03/05 07:58:02;;;;;;;4.67;0.87;;;;;;;3.25;78.87;100666.22;5015143;28;20486;-68
2023/03/05 08:00:28;;;;;;;8.27;1.13;;;;;;;3.32;79.08;100662.53;5015004;28;20483;-68
2023/03/05 08:02:55;;;;;;;6.37;1.00;;;;;;;3.30;79.38;100668.13;5014711;28;20440;-66
2023/03/05 08:05:23;;;;;;;8.77;0.80;;;;;;;3.44;78.36;100650.63;5014570;28;20567;-68
2023/03/05 08:07:50;;;;;;;4.60;0.90;;;;;;;3.52;78.70;100662.75;5014879;28;20526;-67
2023/03/05 08:10:16;;;;;;;12.90;1.03;;;;;;;3.55;76.77;100656.91;5014572;28;20887;-68
2023/03/05 08:12:43;;;;;;;7.20;1.77;;;;;;;3.66;76.13;100663.16;5014832;28;20541;-69
2023/03/05 08:15:11;;;;;;;6.73;1.17;;;;;;;3.66;76.05;100658.59;5014756;28;20551;-69
2023/03/05 08:17:37;;;;;;;5.00;0.93;;;;;;;3.73;76.07;100661.91;5014759;28;20452;-69
2023/03/05 08:20:09;;;;;;;5.27;1.20;;;;;;;3.84;74.80;100661.97;5014671;28;20484;-68
2023/03/05 08:22:38;;;;;;;4.53;0.80;;;;;;;3.85;73.49;100667.09;5014728;28;20433;-69
2023/03/05 08:25:06;;;;;;;5.73;0.93;;;;;;;3.85;73.92;100650.19;5014530;28;20565;-68
2023/03/05 08:27:33;;;;;;;4.43;0.70;;;;;;;4.01;73.09;100649.28;5014467;28;20486;-68
2023/03/05 08:30:01;;;;;;;4.60;0.70;;;;;;;4.07;69.36;100642.88;5014535;28;20480;-68
2023/03/05 08:32:28;;;;;;;5.60;0.97;;;;;;;4.21;69.68;100637.91;5014151;28;20953;-69
2023/03/05 08:34:57;;;;;;;5.93;1.00;;;;;;;4.33;68.69;100637.72;5014383;28;20551;-68
2023/03/05 08:37:23;;;;;;;4.63;0.70;;;;;;;4.30;68.52;100629.13;5014629;28;20474;-68
2023/03/05 08:39:51;;;;;;;5.90;0.90;;;;;;;4.41;68.52;100627.31;5014229;28;20490;-67
2023/03/05 08:42:18;;;;;;;5.20;0.77;;;;;;;4.34;66.17;100628.59;5014244;28;20822;-68
2023/03/05 08:44:45;;;;;;;5.70;1.10;;;;;;;4.30;67.41;100615.72;5014331;28;20466;-68
2023/03/05 08:47:11;;;;;;;5.00;0.90;;;;;;;4.27;68.29;100628.84;5014623;28;20446;-68
2023/03/05 08:49:38;;;;;;;7.83;0.87;;;;;;;4.37;67.48;100620.03;5014402;28;20436;-69
2023/03/05 08:52:05;;;;;;;5.50;0.60;;;;;;;4.33;67.08;100617.06;5014237;28;20440;-69
2023/03/05 08:54:31;;;;;;;9.30;0.90;;;;;;;4.48;67.72;100629.78;5013753;28;20519;-70
2023/03/05 08:57:00;;;;;;;6.97;1.33;;;;;;;4.58;66.44;100627.16;5014088;28;20440;-70
2023/03/05 08:59:26;;;;;;;5.33;0.87;;;;;;;4.71;65.92;100621.31;5013793;28;20518;-69
2023/03/05 09:01:53;;;;;;;4.40;0.60;;;;;;;4.66;65.56;100618.63;5014296;28;20487;-69
2023/03/05 09:04:20;;;;;;;6.00;0.87;;;;;;;4.64;65.09;100614.56;5014015;28;20444;-70
2023/03/05 09:06:46;;;;;;;4.50;0.60;;;;;;;4.65;64.52;100624.22;5013904;28;20455;-70
2023/03/05 09:09:13;;;;;;;6.97;1.03;;;;;;;4.61;65.41;100620.47;5013891;28;20440;-70
2023/03/05 09:11:40;;;;;;;7.03;1.30;;;;;;;4.59;66.00;100612.66;5013779;28;20454;-70
2023/03/05 09:14:08;;;;;;;4.40;0.80;;;;;;;4.52;63.15;100614.78;5013844;28;20451;-70
2023/03/05 09:16:35;;;;;;;6.30;1.47;;;;;;;4.56;62.26;100618.56;5013791;28;20460;-71
2023/03/05 09:19:01;;;;;;;6.60;0.97;;;;;;;4.57;64.42;100616.69;5013400;28;20964;-68
2023/03/05 09:21:28;;;;;;;6.17;1.30;;;;;;;4.54;64.77;100615.31;5013394;28;20536;-69
2023/03/05 09:23:58;;;;;;;5.33;1.07;;;;;;;4.66;64.32;100615.13;5013663;28;20440;-69
2023/03/05 09:26:25;;;;;;;7.60;1.00;;;;;;;4.66;64.12;100613.25;5013572;28;20477;-69
2023/03/05 09:29:00;;;;;;;17.93;1.70;;;;;;;4.55;62.99;100608.88;5013523;28;20968;-69
2023/03/05 09:31:28;;;;;;;5.93;0.93;;;;;;;4.52;61.29;100612.09;5013759;28;20839;-69
2023/03/05 09:33:55;;;;;;;4.70;0.70;;;;;;;4.63;61.73;100603.03;5013559;28;20446;-69
2023/03/05 09:36:24;;;;;;;5.23;0.80;;;;;;;4.64;62.35;100591.22;5012805;28;20466;-69
2023/03/05 09:38:51;;;;;;;5.13;1.07;;;;;;;4.79;62.35;100598.56;5013369;28;20428;-69
2023/03/05 09:41:26;;;;;;;4.90;1.03;;;;;;;4.84;61.65;100603.13;5013286;28;20491;-70
2023/03/05 09:44:02;;;;;;;4.80;0.77;;;;;;;4.82;58.38;100595.31;5013464;28;20523;-70
2023/03/05 09:46:40;;;;;;;5.17;0.83;;;;;;;4.77;59.24;100598.78;5013386;28;20482;-69
2023/03/05 09:49:17;;;;;;;5.23;1.20;;;;;;;4.81;59.43;100593.72;5013129;28;20432;-69
2023/03/05 09:51:46;;;;;;;5.33;1.17;;;;;;;4.87;58.00;100599.91;5013526;28;20466;-70
2023/03/05 09:54:17;;;;;;;5.53;1.10;;;;;;;4.92;57.22;100608.00;5013324;28;20486;-69
2023/03/05 09:56:47;;;;;;;4.67;0.70;;;;;;;4.92;57.85;100589.22;5013064;28;20525;-69
2023/03/05 09:59:23;;;;;;;5.73;0.93;;;;;;;4.97;58.49;100589.22;5013218;28;20452;-69
2023/03/05 10:01:52;;;;;;;4.70;0.80;;;;;;;5.06;58.55;100590.31;5013416;28;20467;-69
2023/03/05 10:04:23;;;;;;;4.33;0.70;;;;;;;5.03;59.58;100582.78;5012767;28;20440;-69
2023/03/05 10:06:56;;;;;;;5.03;0.80;;;;;;;4.94;57.66;100573.63;5014710;28;20881;-69
2023/03/05 10:09:37;;;;;;;4.67;0.67;;;;;;;4.91;57.41;100593.75;5017147;28;20862;-69
2023/03/05 10:12:07;;;;;;;4.97;0.90;;;;;;;4.80;58.10;100586.75;5017168;28;20439;-69
2023/03/05 10:14:36;;;;;;;5.27;0.90;;;;;;;4.71;58.94;100594.47;5017253;28;20812;-69
2023/03/05 10:17:35;;;;;;;4.67;0.70;;;;;;;4.56;61.28;100594.44;5017119;28;20444;-69
2023/03/05 10:20:31;;;;;;;5.00;0.90;;;;;;;4.43;63.72;100584.97;5016632;28;20479;-68
2023/03/05 10:23:14;;;;;;;7.20;1.03;;;;;;;4.30;65.18;100588.91;5016921;28;20438;-69
2023/03/05 10:25:54;;;;;;;4.47;0.80;;;;;;;4.30;66.99;100583.56;5016320;28;20479;-69
2023/03/05 10:28:27;;;;;;;5.60;0.80;;;;;;;4.46;66.61;100570.22;5016454;28;20436;-69
2023/03/05 10:31:24;;;;;;;5.67;1.00;;;;;;;4.49;68.43;100567.81;5016780;28;20517;-69
2023/03/05 10:34:03;;;;;;;7.90;0.80;;;;;;;4.39;68.13;100562.41;4996551;28;20452;-68
2023/03/05 10:36:53;;;;;;;4.83;0.70;;;;;;;4.12;70.08;100569.75;5016780;28;20478;-68
2023/03/05 10:39:45;;;;;;;4.77;1.00;;;;;;;4.04;70.75;100574.53;5016324;28;20458;-69
2023/03/05 10:42:22;;;;;;;8.50;1.23;;;;;;;4.00;71.77;100559.22;5016550;28;20530;-68
2023/03/05 10:44:52;;;;;;;6.43;0.90;;;;;;;4.14;71.12;100565.75;5016403;28;20525;-68
2023/03/05 10:47:25;;;;;;;10.53;1.47;;;;;;;4.21;71.25;100557.50;5016457;28;20534;-69
2023/03/05 10:49:55;;;;;;;6.70;1.60;;;;;;;4.34;69.55;100551.66;5016403;28;20460;-69
2023/03/05 10:52:30;;;;;;;5.83;1.23;;;;;;;4.37;68.90;100556.50;5016590;28;20949;-69
2023/03/05 10:54:56;;;;;;;7.43;0.80;;;;;;;4.39;69.11;100551.69;5016197;28;20467;-69
2023/03/05 10:57:25;;;;;;;5.50;1.07;;;;;;;4.42;68.38;100559.19;5016240;28;20466;-68
2023/03/05 10:59:54;;;;;;;6.33;1.20;;;;;;;4.39;68.61;100565.09;5016164;28;20574;-68
2023/03/05 11:02:22;;;;;;;4.33;0.70;;;;;;;4.30;67.70;100556.75;5015905;28;20444;-69
2023/03/05 11:04:51;;;;;;;7.43;1.40;;;;;;;4.37;67.71;100555.69;5016132;28;20488;-69
2023/03/05 11:07:37;;;;;;;4.50;0.70;;;;;;;4.41;67.86;100548.75;5016055;28;20443;-69
2023/03/05 11:10:16;;;;;;;6.00;1.30;;;;;;;4.40;69.69;100542.56;5015178;28;20547;-69
2023/03/05 11:12:43;;;;;;;4.40;0.70;;;;;;;4.44;69.15;100543.66;5015688;28;20523;-69
2023/03/05 11:15:26;;;;;;;5.20;1.17;;;;;;;4.48;70.77;100538.59;5015879;28;20468;-69
2023/03/05 11:18:16;;;;;;;9.70;1.03;;;;;;;4.46;69.77;100551.44;5015679;28;20441;-69
2023/03/05 11:20:43;;;;;;;4.57;0.80;;;;;;;4.48;67.62;100547.44;5015604;28;21053;-69
2023/03/05 11:23:13;;;;;;;6.23;0.97;;;;;;;4.49;66.80;100542.88;5016038;28;20479;-69
2023/03/05 11:25:54;;;;;;;5.27;1.13;;;;;;;4.51;66.94;100538.06;5015380;28;20510;-69
2023/03/05 11:28:22;;;;;;;5.87;1.00;;;;;;;4.67;65.21;100533.56;5015442;28;20510;-70
2023/03/05 11:31:00;;;;;;;7.23;1.30;;;;;;;4.74;64.92;100540.31;5015863;28;20468;-69
2023/03/05 11:33:27;;;;;;;5.37;0.80;;;;;;;4.67;64.22;100537.06;5015767;28;20515;-69
2023/03/05 11:36:17;;;;;;;4.87;0.90;;;;;;;4.43;66.21;100535.91;5015636;28;20459;-69
2023/03/05 11:38:51;;;;;;;6.10;1.17;;;;;;;4.27;66.42;100527.75;5015487;28;20430;-69